sensor_id;sensor_type;location;lat;lon;timestamp;P1;durP1;ratioP1;P2;durP2;ratioP2
59938;SDS011;45801;51.810;19.444;2023-02-10T00:00:45;29.20;;;15.40;;
59938;SDS011;45801;51.810;19.444;2023-02-10T00:03:24;28.20;;;14.10;;
59938;SDS011;45801;51.810;19.444;2023-02-10T00:05:50;24.30;;;13.00;;
59938;SDS011;45801;51.810;19.444;2023-02-10T00:08:16;26.60;;;13.70;;
59938;SDS011;45801;51.810;19.444;2023-02-10T00:10:42;24.30;;;13.60;;
59938;SDS011;45801;51.810;19.444;2023-02-10T00:13:08;23.50;;;12.00;;
59938;SDS011;45801;51.810;19.444;2023-02-10T00:15:34;26.30;;;14.30;;
59938;SDS011;45801;51.810;19.444;2023-02-10T00:18:02;22.30;;;13.20;;
59938;SDS011;45801;51.810;19.444;2023-02-10T00:20:28;25.30;;;14.50;;
59938;SDS011;45801;51.810;19.444;2023-02-10T00:22:54;27.30;;;14.10;;
59938;SDS011;45801;51.810;19.444;2023-02-10T00:25:20;23.40;;;14.00;;
59938;SDS011;45801;51.810;19.444;2023-02-10T00:27:46;26.40;;;13.40;;
59938;SDS011;45801;51.810;19.444;2023-02-10T00:30:12;25.30;;;13.30;;
59938;SDS011;45801;51.810;19.444;2023-02-10T00:32:38;24.10;;;13.80;;
59938;SDS011;45801;51.810;19.444;2023-02-10T00:35:08;28.50;;;13.80;;
59938;SDS011;45801;51.810;19.444;2023-02-10T00:37:34;24.10;;;13.80;;
59938;SDS011;45801;51.810;19.444;2023-02-10T00:40:00;25.10;;;15.10;;
59938;SDS011;45801;51.810;19.444;2023-02-10T00:42:27;25.20;;;14.10;;
59938;SDS011;45801;51.810;19.444;2023-02-10T00:44:52;23.10;;;13.90;;
59938;SDS011;45801;51.810;19.444;2023-02-10T00:47:18;25.60;;;14.80;;
59938;SDS011;45801;51.810;19.444;2023-02-10T00:49:44;28.00;;;14.00;;
59938;SDS011;45801;51.810;19.444;2023-02-10T00:52:10;25.30;;;15.20;;
59938;SDS011;45801;51.810;19.444;2023-02-10T00:54:36;25.40;;;15.10;;
59938;SDS011;45801;51.810;19.444;2023-02-10T00:57:02;24.00;;;13.60;;
59938;SDS011;45801;51.810;19.444;2023-02-10T00:59:28;23.30;;;13.40;;
59938;SDS011;45801;51.810;19.444;2023-02-10T01:01:53;25.00;;;13.40;;
59938;SDS011;45801;51.810;19.444;2023-02-10T01:04:19;25.30;;;14.10;;
59938;SDS011;45801;51.810;19.444;2023-02-10T01:06:45;24.60;;;13.60;;
59938;SDS011;45801;51.810;19.444;2023-02-10T01:09:11;23.80;;;13.40;;
59938;SDS011;45801;51.810;19.444;2023-02-10T01:11:37;27.40;;;15.00;;
59938;SDS011;45801;51.810;19.444;2023-02-10T01:14:03;26.60;;;13.90;;
59938;SDS011;45801;51.810;19.444;2023-02-10T01:16:29;26.60;;;13.70;;
59938;SDS011;45801;51.810;19.444;2023-02-10T01:18:55;25.60;;;13.80;;
59938;SDS011;45801;51.810;19.444;2023-02-10T01:21:25;23.90;;;13.00;;
59938;SDS011;45801;51.810;19.444;2023-02-10T01:23:51;24.90;;;13.70;;
59938;SDS011;45801;51.810;19.444;2023-02-10T01:26:17;24.50;;;12.70;;
59938;SDS011;45801;51.810;19.444;2023-02-10T01:28:43;25.40;;;13.70;;
59938;SDS011;45801;51.810;19.444;2023-02-10T01:31:12;26.60;;;13.70;;
59938;SDS011;45801;51.810;19.444;2023-02-10T01:33:39;23.70;;;13.30;;
59938;SDS011;45801;51.810;19.444;2023-02-10T01:36:08;25.20;;;14.60;;
59938;SDS011;45801;51.810;19.444;2023-02-10T01:38:35;25.80;;;13.00;;
59938;SDS011;45801;51.810;19.444;2023-02-10T01:41:02;26.20;;;14.00;;
59938;SDS011;45801;51.810;19.444;2023-02-10T01:43:29;26.70;;;13.30;;
59938;SDS011;45801;51.810;19.444;2023-02-10T01:45:55;24.90;;;13.40;;
59938;SDS011;45801;51.810;19.444;2023-02-10T01:48:20;23.80;;;13.70;;
59938;SDS011;45801;51.810;19.444;2023-02-10T01:50:57;27.50;;;14.00;;
59938;SDS011;45801;51.810;19.444;2023-02-10T01:53:27;24.50;;;13.10;;
59938;SDS011;45801;51.810;19.444;2023-02-10T01:55:55;19.30;;;11.70;;
59938;SDS011;45801;51.810;19.444;2023-02-10T01:58:27;26.90;;;15.50;;
59938;SDS011;45801;51.810;19.444;2023-02-10T02:00:55;19.80;;;11.40;;
59938;SDS011;45801;51.810;19.444;2023-02-10T02:03:21;22.20;;;12.80;;
59938;SDS011;45801;51.810;19.444;2023-02-10T02:05:47;27.50;;;14.20;;
59938;SDS011;45801;51.810;19.444;2023-02-10T02:16:45;26.30;;;15.70;;
59938;SDS011;45801;51.810;19.444;2023-02-10T02:19:39;26.00;;;14.70;;
59938;SDS011;45801;51.810;19.444;2023-02-10T02:36:12;26.10;;;14.30;;
59938;SDS011;45801;51.810;19.444;2023-02-10T02:38:44;25.20;;;13.70;;
59938;SDS011;45801;51.810;19.444;2023-02-10T02:41:10;26.50;;;15.10;;
59938;SDS011;45801;51.810;19.444;2023-02-10T02:43:36;24.40;;;12.90;;
59938;SDS011;45801;51.810;19.444;2023-02-10T02:54:14;22.50;;;13.60;;
59938;SDS011;45801;51.810;19.444;2023-02-10T02:56:55;23.90;;;13.40;;
59938;SDS011;45801;51.810;19.444;2023-02-10T02:59:52;28.30;;;14.10;;
59938;SDS011;45801;51.810;19.444;2023-02-10T03:02:23;28.70;;;15.50;;
59938;SDS011;45801;51.810;19.444;2023-02-10T03:04:54;23.10;;;13.80;;
59938;SDS011;45801;51.810;19.444;2023-02-10T03:07:20;26.60;;;13.90;;
59938;SDS011;45801;51.810;19.444;2023-02-10T03:09:46;27.90;;;13.60;;
59938;SDS011;45801;51.810;19.444;2023-02-10T03:12:13;25.60;;;15.30;;
59938;SDS011;45801;51.810;19.444;2023-02-10T03:14:39;24.80;;;14.40;;
59938;SDS011;45801;51.810;19.444;2023-02-10T03:17:05;23.00;;;14.40;;
59938;SDS011;45801;51.810;19.444;2023-02-10T03:19:31;24.00;;;14.40;;
59938;SDS011;45801;51.810;19.444;2023-02-10T03:21:57;26.90;;;13.80;;
59938;SDS011;45801;51.810;19.444;2023-02-10T03:24:23;26.50;;;15.50;;
59938;SDS011;45801;51.810;19.444;2023-02-10T03:26:48;26.20;;;14.70;;
59938;SDS011;45801;51.810;19.444;2023-02-10T03:29:15;25.10;;;15.00;;
59938;SDS011;45801;51.810;19.444;2023-02-10T03:31:41;26.10;;;15.20;;
59938;SDS011;45801;51.810;19.444;2023-02-10T03:34:07;23.70;;;14.70;;
59938;SDS011;45801;51.810;19.444;2023-02-10T03:36:33;23.20;;;12.20;;
59938;SDS011;45801;51.810;19.444;2023-02-10T03:39:00;22.80;;;12.90;;
59938;SDS011;45801;51.810;19.444;2023-02-10T03:41:26;23.80;;;13.80;;
59938;SDS011;45801;51.810;19.444;2023-02-10T03:43:52;24.20;;;12.90;;
59938;SDS011;45801;51.810;19.444;2023-02-10T03:46:18;24.80;;;13.70;;
59938;SDS011;45801;51.810;19.444;2023-02-10T03:48:43;24.30;;;13.70;;
59938;SDS011;45801;51.810;19.444;2023-02-10T03:51:09;24.60;;;14.20;;
59938;SDS011;45801;51.810;19.444;2023-02-10T03:53:35;26.20;;;14.30;;
59938;SDS011;45801;51.810;19.444;2023-02-10T03:56:01;25.20;;;14.80;;
59938;SDS011;45801;51.810;19.444;2023-02-10T03:58:27;27.20;;;13.20;;
59938;SDS011;45801;51.810;19.444;2023-02-10T04:00:53;25.20;;;13.90;;
59938;SDS011;45801;51.810;19.444;2023-02-10T04:03:19;22.00;;;12.10;;
59938;SDS011;45801;51.810;19.444;2023-02-10T04:05:45;26.10;;;14.40;;
59938;SDS011;45801;51.810;19.444;2023-02-10T04:08:11;22.00;;;14.20;;
59938;SDS011;45801;51.810;19.444;2023-02-10T04:10:37;23.20;;;14.00;;
59938;SDS011;45801;51.810;19.444;2023-02-10T04:13:03;27.50;;;14.90;;
59938;SDS011;45801;51.810;19.444;2023-02-10T04:15:29;24.70;;;14.10;;
59938;SDS011;45801;51.810;19.444;2023-02-10T04:17:55;25.20;;;15.10;;
59938;SDS011;45801;51.810;19.444;2023-02-10T04:20:22;26.30;;;15.60;;
59938;SDS011;45801;51.810;19.444;2023-02-10T04:22:49;24.20;;;13.70;;
59938;SDS011;45801;51.810;19.444;2023-02-10T04:25:15;23.70;;;13.90;;
59938;SDS011;45801;51.810;19.444;2023-02-10T04:27:40;23.20;;;14.30;;
59938;SDS011;45801;51.810;19.444;2023-02-10T04:30:06;24.90;;;14.50;;
59938;SDS011;45801;51.810;19.444;2023-02-10T04:32:33;25.10;;;12.20;;
59938;SDS011;45801;51.810;19.444;2023-02-10T04:34:59;26.00;;;14.00;;
59938;SDS011;45801;51.810;19.444;2023-02-10T04:37:24;25.40;;;12.80;;
59938;SDS011;45801;51.810;19.444;2023-02-10T04:39:50;23.80;;;14.10;;
59938;SDS011;45801;51.810;19.444;2023-02-10T04:42:16;27.30;;;14.40;;
59938;SDS011;45801;51.810;19.444;2023-02-10T04:44:42;25.30;;;14.10;;
59938;SDS011;45801;51.810;19.444;2023-02-10T04:47:08;24.80;;;14.50;;
59938;SDS011;45801;51.810;19.444;2023-02-10T04:49:33;23.20;;;13.80;;
59938;SDS011;45801;51.810;19.444;2023-02-10T04:51:59;23.10;;;14.10;;
59938;SDS011;45801;51.810;19.444;2023-02-10T04:54:25;21.80;;;12.90;;
59938;SDS011;45801;51.810;19.444;2023-02-10T04:56:51;23.80;;;13.30;;
59938;SDS011;45801;51.810;19.444;2023-02-10T04:59:17;27.00;;;13.80;;
59938;SDS011;45801;51.810;19.444;2023-02-10T05:01:43;21.90;;;14.20;;
59938;SDS011;45801;51.810;19.444;2023-02-10T05:04:09;23.20;;;12.90;;
59938;SDS011;45801;51.810;19.444;2023-02-10T05:06:34;22.00;;;12.30;;
59938;SDS011;45801;51.810;19.444;2023-02-10T05:09:01;23.50;;;13.90;;
59938;SDS011;45801;51.810;19.444;2023-02-10T05:11:27;21.50;;;12.40;;
59938;SDS011;45801;51.810;19.444;2023-02-10T05:13:53;21.60;;;11.00;;
59938;SDS011;45801;51.810;19.444;2023-02-10T05:16:19;23.60;;;12.60;;
59938;SDS011;45801;51.810;19.444;2023-02-10T05:18:45;21.90;;;12.40;;
59938;SDS011;45801;51.810;19.444;2023-02-10T05:21:11;24.90;;;13.40;;
59938;SDS011;45801;51.810;19.444;2023-02-10T05:23:38;22.20;;;12.70;;
59938;SDS011;45801;51.810;19.444;2023-02-10T05:26:05;25.40;;;14.40;;
59938;SDS011;45801;51.810;19.444;2023-02-10T05:28:32;23.80;;;14.00;;
59938;SDS011;45801;51.810;19.444;2023-02-10T05:30:58;23.50;;;13.40;;
59938;SDS011;45801;51.810;19.444;2023-02-10T05:33:24;22.10;;;13.80;;
59938;SDS011;45801;51.810;19.444;2023-02-10T05:35:50;26.10;;;15.10;;
59938;SDS011;45801;51.810;19.444;2023-02-10T05:38:17;22.90;;;13.70;;
59938;SDS011;45801;51.810;19.444;2023-02-10T05:40:43;21.20;;;13.50;;
59938;SDS011;45801;51.810;19.444;2023-02-10T05:43:09;23.60;;;15.10;;
59938;SDS011;45801;51.810;19.444;2023-02-10T05:45:36;24.50;;;13.70;;
59938;SDS011;45801;51.810;19.444;2023-02-10T05:48:02;23.00;;;13.20;;
59938;SDS011;45801;51.810;19.444;2023-02-10T05:50:29;19.60;;;12.50;;
59938;SDS011;45801;51.810;19.444;2023-02-10T05:52:55;21.50;;;12.60;;
59938;SDS011;45801;51.810;19.444;2023-02-10T05:55:21;21.10;;;12.80;;
59938;SDS011;45801;51.810;19.444;2023-02-10T05:57:47;22.40;;;14.40;;
59938;SDS011;45801;51.810;19.444;2023-02-10T06:00:13;21.60;;;11.70;;
59938;SDS011;45801;51.810;19.444;2023-02-10T06:02:39;22.60;;;11.20;;
59938;SDS011;45801;51.810;19.444;2023-02-10T06:05:05;21.60;;;13.50;;
59938;SDS011;45801;51.810;19.444;2023-02-10T06:07:31;20.20;;;12.40;;
59938;SDS011;45801;51.810;19.444;2023-02-10T06:09:57;24.60;;;12.40;;
59938;SDS011;45801;51.810;19.444;2023-02-10T06:12:23;22.30;;;13.20;;
59938;SDS011;45801;51.810;19.444;2023-02-10T06:14:49;19.50;;;11.40;;
59938;SDS011;45801;51.810;19.444;2023-02-10T06:17:15;22.60;;;13.10;;
59938;SDS011;45801;51.810;19.444;2023-02-10T06:19:40;20.30;;;12.90;;
59938;SDS011;45801;51.810;19.444;2023-02-10T06:22:07;21.40;;;12.20;;
59938;SDS011;45801;51.810;19.444;2023-02-10T06:24:33;20.40;;;10.60;;
59938;SDS011;45801;51.810;19.444;2023-02-10T06:26:59;20.20;;;12.50;;
59938;SDS011;45801;51.810;19.444;2023-02-10T06:29:26;23.00;;;12.60;;
59938;SDS011;45801;51.810;19.444;2023-02-10T06:31:52;23.60;;;12.70;;
59938;SDS011;45801;51.810;19.444;2023-02-10T06:34:18;21.10;;;12.30;;
59938;SDS011;45801;51.810;19.444;2023-02-10T06:36:44;25.20;;;14.60;;
59938;SDS011;45801;51.810;19.444;2023-02-10T06:39:10;21.60;;;11.00;;
59938;SDS011;45801;51.810;19.444;2023-02-10T06:41:35;22.80;;;13.70;;
59938;SDS011;45801;51.810;19.444;2023-02-10T06:44:01;24.20;;;14.20;;
59938;SDS011;45801;51.810;19.444;2023-02-10T06:46:27;20.00;;;11.20;;
59938;SDS011;45801;51.810;19.444;2023-02-10T06:48:53;24.80;;;14.50;;
59938;SDS011;45801;51.810;19.444;2023-02-10T06:51:19;23.90;;;13.10;;
59938;SDS011;45801;51.810;19.444;2023-02-10T06:53:45;21.30;;;13.10;;
59938;SDS011;45801;51.810;19.444;2023-02-10T06:56:11;21.30;;;12.70;;
59938;SDS011;45801;51.810;19.444;2023-02-10T06:58:38;25.20;;;14.20;;
59938;SDS011;45801;51.810;19.444;2023-02-10T07:01:08;22.40;;;11.60;;
59938;SDS011;45801;51.810;19.444;2023-02-10T07:03:35;24.40;;;14.70;;
59938;SDS011;45801;51.810;19.444;2023-02-10T07:06:02;25.00;;;15.00;;
59938;SDS011;45801;51.810;19.444;2023-02-10T07:08:29;27.50;;;13.30;;
59938;SDS011;45801;51.810;19.444;2023-02-10T07:10:55;26.00;;;15.00;;
59938;SDS011;45801;51.810;19.444;2023-02-10T07:13:21;23.90;;;14.10;;
59938;SDS011;45801;51.810;19.444;2023-02-10T07:15:47;29.90;;;15.40;;
59938;SDS011;45801;51.810;19.444;2023-02-10T07:18:13;23.00;;;13.60;;
59938;SDS011;45801;51.810;19.444;2023-02-10T07:20:39;26.00;;;14.80;;
59938;SDS011;45801;51.810;19.444;2023-02-10T07:23:05;26.10;;;16.30;;
59938;SDS011;45801;51.810;19.444;2023-02-10T07:25:31;27.80;;;15.20;;
59938;SDS011;45801;51.810;19.444;2023-02-10T07:27:57;29.30;;;16.50;;
59938;SDS011;45801;51.810;19.444;2023-02-10T07:30:23;27.80;;;15.90;;
59938;SDS011;45801;51.810;19.444;2023-02-10T07:32:49;27.70;;;15.50;;
59938;SDS011;45801;51.810;19.444;2023-02-10T07:35:14;28.60;;;16.10;;
59938;SDS011;45801;51.810;19.444;2023-02-10T07:37:40;26.50;;;14.70;;
59938;SDS011;45801;51.810;19.444;2023-02-10T07:40:06;29.70;;;18.10;;
59938;SDS011;45801;51.810;19.444;2023-02-10T07:42:33;26.00;;;14.10;;
59938;SDS011;45801;51.810;19.444;2023-02-10T07:45:00;27.70;;;15.70;;
59938;SDS011;45801;51.810;19.444;2023-02-10T07:47:25;30.50;;;17.60;;
59938;SDS011;45801;51.810;19.444;2023-02-10T07:49:51;28.70;;;16.40;;
59938;SDS011;45801;51.810;19.444;2023-02-10T07:52:20;27.30;;;15.50;;
59938;SDS011;45801;51.810;19.444;2023-02-10T07:54:47;29.70;;;16.90;;
59938;SDS011;45801;51.810;19.444;2023-02-10T07:57:13;36.30;;;20.00;;
59938;SDS011;45801;51.810;19.444;2023-02-10T07:59:39;27.00;;;16.00;;
59938;SDS011;45801;51.810;19.444;2023-02-10T08:02:05;29.20;;;16.20;;
59938;SDS011;45801;51.810;19.444;2023-02-10T08:04:31;28.60;;;16.70;;
59938;SDS011;45801;51.810;19.444;2023-02-10T08:06:57;34.40;;;21.50;;
59938;SDS011;45801;51.810;19.444;2023-02-10T08:09:23;31.80;;;18.40;;
59938;SDS011;45801;51.810;19.444;2023-02-10T08:11:48;31.90;;;17.90;;
59938;SDS011;45801;51.810;19.444;2023-02-10T08:14:14;31.50;;;17.40;;
59938;SDS011;45801;51.810;19.444;2023-02-10T08:16:42;26.50;;;15.60;;
59938;SDS011;45801;51.810;19.444;2023-02-10T08:19:07;30.90;;;16.90;;
59938;SDS011;45801;51.810;19.444;2023-02-10T08:21:33;29.90;;;17.10;;
59938;SDS011;45801;51.810;19.444;2023-02-10T08:23:59;30.80;;;16.80;;
59938;SDS011;45801;51.810;19.444;2023-02-10T08:26:25;25.60;;;15.90;;
59938;SDS011;45801;51.810;19.444;2023-02-10T08:28:51;26.40;;;15.20;;
59938;SDS011;45801;51.810;19.444;2023-02-10T08:31:20;25.60;;;14.50;;
59938;SDS011;45801;51.810;19.444;2023-02-10T08:33:47;29.70;;;17.40;;
59938;SDS011;45801;51.810;19.444;2023-02-10T08:36:14;28.30;;;17.20;;
59938;SDS011;45801;51.810;19.444;2023-02-10T08:38:42;25.40;;;15.30;;
59938;SDS011;45801;51.810;19.444;2023-02-10T08:41:08;29.60;;;17.70;;
59938;SDS011;45801;51.810;19.444;2023-02-10T08:43:34;32.20;;;17.80;;
59938;SDS011;45801;51.810;19.444;2023-02-10T08:46:00;29.10;;;17.00;;
59938;SDS011;45801;51.810;19.444;2023-02-10T08:48:26;28.10;;;15.30;;
59938;SDS011;45801;51.810;19.444;2023-02-10T08:50:53;34.20;;;18.90;;
59938;SDS011;45801;51.810;19.444;2023-02-10T08:53:19;25.30;;;14.50;;
59938;SDS011;45801;51.810;19.444;2023-02-10T08:58:42;29.20;;;15.80;;
59938;SDS011;45801;51.810;19.444;2023-02-10T09:01:12;26.90;;;16.00;;
59938;SDS011;45801;51.810;19.444;2023-02-10T09:03:40;27.10;;;15.90;;
59938;SDS011;45801;51.810;19.444;2023-02-10T09:06:17;27.00;;;15.50;;
59938;SDS011;45801;51.810;19.444;2023-02-10T09:08:45;27.70;;;17.30;;
59938;SDS011;45801;51.810;19.444;2023-02-10T09:11:16;28.00;;;16.20;;
59938;SDS011;45801;51.810;19.444;2023-02-10T09:13:48;27.30;;;17.00;;
59938;SDS011;45801;51.810;19.444;2023-02-10T09:16:15;26.30;;;16.50;;
59938;SDS011;45801;51.810;19.444;2023-02-10T09:18:41;29.50;;;16.60;;
59938;SDS011;45801;51.810;19.444;2023-02-10T09:21:08;31.00;;;16.00;;
59938;SDS011;45801;51.810;19.444;2023-02-10T09:23:35;20.60;;;12.60;;
59938;SDS011;45801;51.810;19.444;2023-02-10T09:26:01;30.00;;;16.60;;
59938;SDS011;45801;51.810;19.444;2023-02-10T09:28:27;28.90;;;16.50;;
59938;SDS011;45801;51.810;19.444;2023-02-10T09:30:54;30.60;;;17.60;;
59938;SDS011;45801;51.810;19.444;2023-02-10T09:33:20;26.90;;;16.00;;
59938;SDS011;45801;51.810;19.444;2023-02-10T09:35:46;28.90;;;15.80;;
59938;SDS011;45801;51.810;19.444;2023-02-10T09:38:13;28.70;;;16.90;;
59938;SDS011;45801;51.810;19.444;2023-02-10T09:54:54;27.80;;;15.90;;
59938;SDS011;45801;51.810;19.444;2023-02-10T09:57:22;27.30;;;17.70;;
59938;SDS011;45801;51.810;19.444;2023-02-10T10:00:54;30.40;;;17.50;;
59938;SDS011;45801;51.810;19.444;2023-02-10T10:03:17;28.50;;;15.80;;
59938;SDS011;45801;51.810;19.444;2023-02-10T10:08:27;27.40;;;15.50;;
59938;SDS011;45801;51.810;19.444;2023-02-10T10:11:12;29.10;;;15.40;;
59938;SDS011;45801;51.810;19.444;2023-02-10T10:13:48;25.30;;;16.40;;
59938;SDS011;45801;51.810;19.444;2023-02-10T10:16:19;28.90;;;16.20;;
59938;SDS011;45801;51.810;19.444;2023-02-10T10:30:40;26.80;;;15.50;;
59938;SDS011;45801;51.810;19.444;2023-02-10T10:33:56;29.40;;;17.50;;
59938;SDS011;45801;51.810;19.444;2023-02-10T10:36:18;30.60;;;16.60;;
59938;SDS011;45801;51.810;19.444;2023-02-10T10:38:54;28.40;;;16.50;;
59938;SDS011;45801;51.810;19.444;2023-02-10T10:41:26;27.20;;;17.10;;
59938;SDS011;45801;51.810;19.444;2023-02-10T10:43:55;27.00;;;14.20;;
59938;SDS011;45801;51.810;19.444;2023-02-10T10:49:06;29.30;;;15.30;;
59938;SDS011;45801;51.810;19.444;2023-02-10T10:51:32;25.30;;;14.90;;
59938;SDS011;45801;51.810;19.444;2023-02-10T10:54:00;26.70;;;15.50;;
59938;SDS011;45801;51.810;19.444;2023-02-10T10:59:13;26.70;;;15.30;;
59938;SDS011;45801;51.810;19.444;2023-02-10T11:01:43;25.90;;;14.40;;
59938;SDS011;45801;51.810;19.444;2023-02-10T11:06:48;29.70;;;17.40;;
59938;SDS011;45801;51.810;19.444;2023-02-10T11:09:30;30.80;;;15.80;;
59938;SDS011;45801;51.810;19.444;2023-02-10T11:12:02;27.60;;;16.40;;
59938;SDS011;45801;51.810;19.444;2023-02-10T11:14:36;28.60;;;15.80;;
59938;SDS011;45801;51.810;19.444;2023-02-10T11:19:52;29.90;;;14.60;;
59938;SDS011;45801;51.810;19.444;2023-02-10T11:22:19;27.60;;;15.80;;
59938;SDS011;45801;51.810;19.444;2023-02-10T11:24:51;23.70;;;13.30;;
59938;SDS011;45801;51.810;19.444;2023-02-10T11:27:22;26.80;;;15.20;;
59938;SDS011;45801;51.810;19.444;2023-02-10T11:29:50;25.00;;;14.70;;
59938;SDS011;45801;51.810;19.444;2023-02-10T11:32:31;27.30;;;15.60;;
59938;SDS011;45801;51.810;19.444;2023-02-10T11:35:01;27.00;;;14.70;;
59938;SDS011;45801;51.810;19.444;2023-02-10T11:37:31;24.70;;;14.00;;
59938;SDS011;45801;51.810;19.444;2023-02-10T11:40:02;26.10;;;14.80;;
59938;SDS011;45801;51.810;19.444;2023-02-10T11:42:34;25.20;;;13.90;;
59938;SDS011;45801;51.810;19.444;2023-02-10T11:45:20;35.10;;;20.40;;
59938;SDS011;45801;51.810;19.444;2023-02-10T11:47:59;25.60;;;14.20;;
59938;SDS011;45801;51.810;19.444;2023-02-10T11:50:38;28.80;;;17.00;;
59938;SDS011;45801;51.810;19.444;2023-02-10T11:53:04;25.30;;;14.60;;
59938;SDS011;45801;51.810;19.444;2023-02-10T11:55:57;32.10;;;18.30;;
59938;SDS011;45801;51.810;19.444;2023-02-10T12:01:33;27.40;;;14.50;;
59938;SDS011;45801;51.810;19.444;2023-02-10T12:04:14;29.70;;;17.60;;
59938;SDS011;45801;51.810;19.444;2023-02-10T12:07:01;30.60;;;18.00;;
59938;SDS011;45801;51.810;19.444;2023-02-10T12:09:40;31.00;;;17.30;;
59938;SDS011;45801;51.810;19.444;2023-02-10T12:23:25;32.20;;;19.80;;
59938;SDS011;45801;51.810;19.444;2023-02-10T12:35:29;32.70;;;18.20;;
59938;SDS011;45801;51.810;19.444;2023-02-10T12:40:45;32.10;;;19.20;;
59938;SDS011;45801;51.810;19.444;2023-02-10T12:46:24;29.90;;;17.10;;
59938;SDS011;45801;51.810;19.444;2023-02-10T12:49:08;29.30;;;18.20;;
59938;SDS011;45801;51.810;19.444;2023-02-10T12:54:16;31.60;;;19.30;;
59938;SDS011;45801;51.810;19.444;2023-02-10T12:56:47;33.70;;;19.50;;
59938;SDS011;45801;51.810;19.444;2023-02-10T13:02:42;29.90;;;15.80;;
59938;SDS011;45801;51.810;19.444;2023-02-10T13:05:23;37.20;;;20.30;;
59938;SDS011;45801;51.810;19.444;2023-02-10T13:07:59;29.70;;;17.50;;
59938;SDS011;45801;51.810;19.444;2023-02-10T13:13:03;39.40;;;22.70;;
59938;SDS011;45801;51.810;19.444;2023-02-10T13:18:16;40.30;;;22.40;;
59938;SDS011;45801;51.810;19.444;2023-02-10T13:20:53;35.70;;;21.10;;
59938;SDS011;45801;51.810;19.444;2023-02-10T13:28:58;39.70;;;24.00;;
59938;SDS011;45801;51.810;19.444;2023-02-10T13:34:04;39.10;;;22.90;;
59938;SDS011;45801;51.810;19.444;2023-02-10T13:36:45;40.80;;;20.60;;
59938;SDS011;45801;51.810;19.444;2023-02-10T13:39:21;37.90;;;20.90;;
59938;SDS011;45801;51.810;19.444;2023-02-10T13:41:51;36.60;;;21.50;;
59938;SDS011;45801;51.810;19.444;2023-02-10T13:44:35;39.20;;;22.50;;
59938;SDS011;45801;51.810;19.444;2023-02-10T13:49:36;37.10;;;21.90;;
59938;SDS011;45801;51.810;19.444;2023-02-10T13:52:20;39.10;;;22.60;;
59938;SDS011;45801;51.810;19.444;2023-02-10T13:55:00;32.60;;;19.50;;
59938;SDS011;45801;51.810;19.444;2023-02-10T13:57:30;31.50;;;18.20;;
59938;SDS011;45801;51.810;19.444;2023-02-10T14:03:28;39.40;;;22.90;;
59938;SDS011;45801;51.810;19.444;2023-02-10T14:06:06;37.70;;;21.50;;
59938;SDS011;45801;51.810;19.444;2023-02-10T14:08:37;37.00;;;21.70;;
59938;SDS011;45801;51.810;19.444;2023-02-10T14:13:43;35.20;;;20.00;;
59938;SDS011;45801;51.810;19.444;2023-02-10T14:18:56;42.70;;;25.70;;
59938;SDS011;45801;51.810;19.444;2023-02-10T14:21:24;33.50;;;22.80;;
59938;SDS011;45801;51.810;19.444;2023-02-10T14:23:54;34.00;;;19.10;;
59938;SDS011;45801;51.810;19.444;2023-02-10T14:26:31;37.40;;;22.00;;
59938;SDS011;45801;51.810;19.444;2023-02-10T14:29:00;33.10;;;19.10;;
59938;SDS011;45801;51.810;19.444;2023-02-10T14:31:28;39.20;;;20.20;;
59938;SDS011;45801;51.810;19.444;2023-02-10T14:33:59;37.10;;;22.50;;
59938;SDS011;45801;51.810;19.444;2023-02-10T14:36:27;40.00;;;25.00;;
59938;SDS011;45801;51.810;19.444;2023-02-10T14:38:54;41.90;;;24.00;;
59938;SDS011;45801;51.810;19.444;2023-02-10T14:41:22;38.10;;;21.50;;
59938;SDS011;45801;51.810;19.444;2023-02-10T14:43:49;42.20;;;23.30;;
59938;SDS011;45801;51.810;19.444;2023-02-10T14:46:25;39.30;;;24.90;;
59938;SDS011;45801;51.810;19.444;2023-02-10T14:49:03;36.60;;;22.60;;
59938;SDS011;45801;51.810;19.444;2023-02-10T14:51:38;41.40;;;24.70;;
59938;SDS011;45801;51.810;19.444;2023-02-10T14:54:10;34.80;;;19.90;;
59938;SDS011;45801;51.810;19.444;2023-02-10T14:56:48;35.80;;;22.10;;
59938;SDS011;45801;51.810;19.444;2023-02-10T14:59:18;39.60;;;24.00;;
59938;SDS011;45801;51.810;19.444;2023-02-10T15:01:45;41.00;;;22.80;;
59938;SDS011;45801;51.810;19.444;2023-02-10T15:04:14;44.00;;;25.20;;
59938;SDS011;45801;51.810;19.444;2023-02-10T15:06:42;39.60;;;23.00;;
59938;SDS011;45801;51.810;19.444;2023-02-10T15:09:12;34.60;;;19.60;;
59938;SDS011;45801;51.810;19.444;2023-02-10T15:11:45;39.30;;;25.50;;
59938;SDS011;45801;51.810;19.444;2023-02-10T15:14:35;40.20;;;24.70;;
59938;SDS011;45801;51.810;19.444;2023-02-10T15:17:07;40.30;;;24.40;;
59938;SDS011;45801;51.810;19.444;2023-02-10T15:19:48;40.00;;;23.90;;
59938;SDS011;45801;51.810;19.444;2023-02-10T15:38:19;39.50;;;23.70;;
59938;SDS011;45801;51.810;19.444;2023-02-10T15:40:55;38.60;;;22.50;;
59938;SDS011;45801;51.810;19.444;2023-02-10T15:43:26;38.60;;;22.60;;
59938;SDS011;45801;51.810;19.444;2023-02-10T15:48:51;39.40;;;23.00;;
59938;SDS011;45801;51.810;19.444;2023-02-10T15:53:47;35.50;;;21.70;;
59938;SDS011;45801;51.810;19.444;2023-02-10T15:56:28;39.80;;;22.10;;
59938;SDS011;45801;51.810;19.444;2023-02-10T15:58:54;36.20;;;21.10;;
59938;SDS011;45801;51.810;19.444;2023-02-10T16:01:20;36.90;;;21.00;;
59938;SDS011;45801;51.810;19.444;2023-02-10T16:03:46;33.80;;;19.70;;
59938;SDS011;45801;51.810;19.444;2023-02-10T16:06:13;36.80;;;22.20;;
59938;SDS011;45801;51.810;19.444;2023-02-10T16:08:40;34.70;;;20.80;;
59938;SDS011;45801;51.810;19.444;2023-02-10T16:11:09;35.90;;;22.10;;
59938;SDS011;45801;51.810;19.444;2023-02-10T16:13:36;34.00;;;20.40;;
59938;SDS011;45801;51.810;19.444;2023-02-10T16:16:02;37.70;;;20.70;;
59938;SDS011;45801;51.810;19.444;2023-02-10T16:18:29;37.10;;;22.80;;
59938;SDS011;45801;51.810;19.444;2023-02-10T16:20:56;36.70;;;21.60;;
59938;SDS011;45801;51.810;19.444;2023-02-10T16:23:26;34.70;;;20.70;;
59938;SDS011;45801;51.810;19.444;2023-02-10T16:25:53;35.50;;;19.80;;
59938;SDS011;45801;51.810;19.444;2023-02-10T16:28:19;37.40;;;22.40;;
59938;SDS011;45801;51.810;19.444;2023-02-10T16:30:44;35.10;;;22.00;;
59938;SDS011;45801;51.810;19.444;2023-02-10T16:33:12;34.60;;;20.30;;
59938;SDS011;45801;51.810;19.444;2023-02-10T16:35:40;34.80;;;19.50;;
59938;SDS011;45801;51.810;19.444;2023-02-10T16:38:08;37.30;;;21.60;;
59938;SDS011;45801;51.810;19.444;2023-02-10T16:40:35;38.00;;;22.10;;
59938;SDS011;45801;51.810;19.444;2023-02-10T16:43:05;36.20;;;21.20;;
59938;SDS011;45801;51.810;19.444;2023-02-10T16:45:32;36.80;;;21.50;;
59938;SDS011;45801;51.810;19.444;2023-02-10T16:47:59;37.00;;;23.50;;
59938;SDS011;45801;51.810;19.444;2023-02-10T16:50:31;38.30;;;22.80;;
59938;SDS011;45801;51.810;19.444;2023-02-10T16:52:59;38.80;;;23.00;;